createdAt,value
2022-09-12T00:00:36.759Z,13.49
2022-09-12T00:01:36.798Z,13.52
2022-09-12T00:02:36.710Z,13.51
2022-09-12T00:03:36.717Z,13.52
2022-09-12T00:04:36.859Z,13.54
2022-09-12T00:05:36.694Z,13.52
2022-09-12T00:06:36.703Z,13.52
2022-09-12T00:07:36.674Z,13.49
2022-09-12T00:08:36.664Z,13.46
2022-09-12T00:09:36.657Z,13.46
2022-09-12T00:10:36.592Z,13.47
2022-09-12T00:11:36.618Z,13.44
2022-09-12T00:12:36.667Z,13.44
2022-09-12T00:13:41.324Z,13.44
2022-09-12T00:14:36.559Z,13.43
2022-09-12T00:15:36.533Z,13.38
2022-09-12T00:16:36.560Z,13.37
2022-09-12T00:17:36.506Z,13.33
2022-09-12T00:18:36.502Z,13.33
2022-09-12T00:19:36.467Z,13.30
2022-09-12T00:20:36.477Z,13.29
2022-09-12T00:21:36.457Z,13.29
2022-09-12T00:22:36.439Z,13.24
2022-09-12T00:23:36.442Z,13.25
2022-09-12T00:24:36.404Z,13.22
2022-09-12T00:25:36.393Z,13.24
2022-09-12T00:26:36.428Z,13.25
2022-09-12T00:27:36.365Z,13.24
2022-09-12T00:28:36.368Z,13.24
2022-09-12T00:29:36.334Z,13.20
2022-09-12T00:30:36.334Z,13.20
2022-09-12T00:31:36.358Z,13.18
2022-09-12T00:32:36.316Z,13.20
2022-09-12T00:33:36.305Z,13.15
2022-09-12T00:34:36.266Z,13.14
2022-09-12T00:35:36.268Z,13.14
2022-09-12T00:36:36.261Z,13.17
2022-09-12T00:37:36.227Z,13.14
2022-09-12T00:38:36.232Z,13.17
2022-09-12T00:39:36.243Z,13.14
2022-09-12T00:40:36.220Z,13.12
2022-09-12T00:41:36.215Z,13.14
2022-09-12T00:42:36.164Z,13.12
2022-09-12T00:43:36.177Z,13.11
2022-09-12T00:44:38.136Z,13.09
2022-09-12T00:45:36.175Z,13.09
2022-09-12T00:46:36.110Z,13.07
2022-09-12T00:47:36.241Z,13.06
2022-09-12T00:48:36.167Z,13.06
2022-09-12T00:49:36.096Z,13.09
2022-09-12T00:50:36.059Z,13.04
2022-09-12T00:51:36.047Z,13.04
2022-09-12T00:52:36.036Z,13.03
2022-09-12T00:53:36.010Z,13.00
2022-09-12T00:54:36.036Z,12.99
2022-09-12T00:55:35.997Z,12.99
2022-09-12T00:56:35.998Z,12.95
2022-09-12T00:57:36.066Z,12.95
2022-09-12T00:58:35.937Z,12.92
2022-09-12T00:59:35.945Z,12.92
2022-09-12T01:00:35.921Z,12.92
2022-09-12T01:01:35.976Z,12.87
2022-09-12T01:02:35.896Z,12.87
2022-09-12T01:03:35.879Z,12.81
2022-09-12T01:04:35.886Z,12.79
2022-09-12T01:05:35.919Z,12.78
2022-09-12T01:06:35.844Z,12.77
2022-09-12T01:07:39.916Z,12.75
2022-09-12T01:08:35.811Z,12.77
2022-09-12T01:09:37.645Z,12.75
2022-09-12T01:10:35.787Z,12.71
2022-09-12T01:11:36.090Z,12.71
2022-09-12T01:12:35.779Z,12.69
2022-09-12T01:13:35.731Z,12.69
2022-09-12T01:14:35.739Z,12.66
2022-09-12T01:15:35.722Z,12.63
2022-09-12T01:16:35.746Z,12.62
2022-09-12T01:17:35.856Z,12.60
2022-09-12T01:18:35.761Z,12.56
2022-09-12T01:19:35.689Z,12.59
2022-09-12T01:20:35.681Z,12.57
2022-09-12T01:21:35.663Z,12.54
2022-09-12T01:22:35.620Z,12.56
2022-09-12T01:23:35.604Z,12.52
2022-09-12T01:24:35.691Z,12.51
2022-09-12T01:25:36.016Z,12.52
2022-09-12T01:26:35.591Z,12.51
2022-09-12T01:27:35.576Z,12.52
2022-09-12T01:28:35.661Z,12.52
2022-09-12T01:29:35.539Z,12.49
2022-09-12T01:30:35.536Z,12.48
2022-09-12T01:31:35.505Z,12.46
2022-09-12T01:32:35.488Z,12.52
2022-09-12T01:33:35.465Z,12.51
2022-09-12T01:34:35.472Z,12.52
2022-09-12T01:35:35.441Z,12.51
2022-09-12T01:36:35.445Z,12.46
2022-09-12T01:37:35.414Z,12.44
2022-09-12T01:38:35.457Z,12.42
2022-09-12T01:39:35.392Z,12.41
2022-09-12T01:40:35.403Z,12.41
2022-09-12T01:41:35.389Z,12.42
2022-09-12T01:42:35.360Z,12.42
2022-09-12T01:43:35.330Z,12.44
2022-09-12T01:44:35.333Z,12.41
2022-09-12T01:45:35.423Z,12.38
2022-09-12T01:46:35.291Z,12.37
2022-09-12T01:47:35.304Z,12.38
2022-09-12T01:48:35.339Z,12.39
2022-09-12T01:49:35.262Z,12.38
2022-09-12T01:50:35.249Z,12.39
2022-09-12T01:51:50.161Z,12.39
2022-09-12T01:52:35.213Z,12.38
2022-09-12T01:53:35.216Z,12.37
2022-09-12T01:54:35.206Z,12.33
2022-09-12T01:55:35.215Z,12.31
2022-09-12T01:56:35.174Z,12.30
2022-09-12T01:57:35.670Z,12.31
2022-09-12T01:58:35.350Z,12.30
2022-09-12T01:59:35.161Z,12.31
2022-09-12T02:00:35.107Z,12.30
2022-09-12T02:01:35.108Z,12.31
2022-09-12T02:02:35.073Z,12.30
2022-09-12T02:03:35.085Z,12.27
2022-09-12T02:04:35.066Z,12.23
2022-09-12T02:05:35.060Z,12.21
2022-09-12T02:06:35.043Z,-39.78
2022-09-12T02:07:35.055Z,-39.78
2022-09-12T02:08:35.053Z,-39.78
2022-09-12T02:09:34.983Z,-39.78
2022-09-12T02:10:35.002Z,-39.78
2022-09-12T02:11:34.965Z,-39.78
2022-09-12T02:12:34.948Z,-39.78
2022-09-12T02:13:34.962Z,-39.78
2022-09-12T02:14:34.907Z,-39.78
2022-09-12T02:15:34.921Z,-39.78
2022-09-12T02:16:34.931Z,-39.78
2022-09-12T02:17:35.145Z,-39.78
2022-09-12T02:18:35.119Z,-39.78
2022-09-12T02:19:34.841Z,-39.78
2022-09-12T02:20:48.081Z,-39.78
2022-09-12T02:21:34.841Z,-39.78
2022-09-12T02:22:34.808Z,-39.78
2022-09-12T02:23:34.788Z,-39.78
2022-09-12T02:24:34.773Z,-39.78
2022-09-12T02:25:35.195Z,-39.78
2022-09-12T02:26:34.773Z,-39.78
2022-09-12T02:27:34.768Z,-39.78
2022-09-12T02:28:34.793Z,-39.78
2022-09-12T02:29:34.728Z,-39.78
2022-09-12T02:30:35.018Z,-39.78
2022-09-12T02:31:34.710Z,-39.78
2022-09-12T02:32:34.710Z,-39.78
2022-09-12T02:33:34.684Z,-39.78
2022-09-12T02:34:34.646Z,-39.78
2022-09-12T02:35:34.651Z,-39.78
2022-09-12T02:36:34.622Z,-39.78
2022-09-12T02:37:34.667Z,-39.78
2022-09-12T02:38:34.671Z,-39.78
2022-09-12T02:39:34.567Z,-39.78
2022-09-12T02:40:34.599Z,-39.78
2022-09-12T02:41:34.557Z,-39.78
2022-09-12T02:42:34.530Z,-39.78
2022-09-12T02:43:34.519Z,-39.78
2022-09-12T02:44:34.765Z,-39.78
2022-09-12T02:45:34.601Z,-39.78
2022-09-12T02:46:34.501Z,-39.78
2022-09-12T02:47:34.473Z,-39.78
2022-09-12T02:48:34.600Z,-39.78
2022-09-12T02:49:34.472Z,-39.78
2022-09-12T02:50:34.437Z,-39.78
2022-09-12T02:51:34.415Z,-39.78
2022-09-12T02:52:34.408Z,-39.78
2022-09-12T02:53:34.390Z,-39.78
2022-09-12T02:54:34.396Z,-39.78
2022-09-12T02:55:37.432Z,-39.78
2022-09-12T03:11:53.358Z,11.74
2022-09-12T03:12:52.520Z,11.70
2022-09-12T03:13:52.528Z,11.70
2022-09-12T03:14:52.509Z,11.72
2022-09-12T03:15:52.524Z,11.72
2022-09-12T03:16:52.484Z,11.72
2022-09-12T03:17:52.740Z,11.70
2022-09-12T03:18:52.443Z,11.71
2022-09-12T03:19:52.452Z,11.67
2022-09-12T03:20:52.434Z,11.68
2022-09-12T03:21:52.412Z,11.67
2022-09-12T03:22:52.385Z,11.65
2022-09-12T03:23:52.379Z,11.67
2022-09-12T03:24:52.364Z,11.65
2022-09-12T03:25:52.343Z,11.64
2022-09-12T03:26:52.340Z,11.62
2022-09-12T03:27:52.320Z,11.59
2022-09-12T03:28:52.312Z,11.62
2022-09-12T03:29:52.323Z,11.62
2022-09-12T03:30:52.357Z,11.62
2022-09-12T03:31:52.268Z,11.62
2022-09-12T03:32:52.276Z,11.59
2022-09-12T03:33:52.241Z,11.59
2022-09-12T03:34:52.439Z,11.59
2022-09-12T03:35:52.209Z,11.59
2022-09-12T03:36:52.190Z,11.59
2022-09-12T03:37:52.177Z,11.59
2022-09-12T03:38:52.166Z,11.59
2022-09-12T03:39:52.188Z,11.56
2022-09-12T03:40:54.903Z,11.57
2022-09-12T03:41:52.729Z,11.56
2022-09-12T03:42:52.122Z,11.53
2022-09-12T03:43:52.097Z,11.52
2022-09-12T03:44:52.085Z,11.52
2022-09-12T03:45:52.107Z,11.52
2022-09-12T03:46:52.061Z,11.47
2022-09-12T03:47:52.045Z,11.47
2022-09-12T03:48:52.018Z,11.47
2022-09-12T03:49:52.491Z,11.43
2022-09-12T03:50:52.133Z,11.44
2022-09-12T03:51:51.988Z,11.43
2022-09-12T03:52:51.973Z,11.44
2022-09-12T03:53:51.960Z,11.46
2022-09-12T03:54:51.934Z,11.49
2022-09-12T03:55:51.957Z,11.49
2022-09-12T03:56:51.916Z,11.46
2022-09-12T03:57:51.905Z,11.44
2022-09-12T03:58:51.884Z,11.44
2022-09-12T03:59:51.902Z,11.46
2022-09-12T04:00:51.882Z,11.44
2022-09-12T04:01:51.923Z,11.47
2022-09-12T04:02:51.848Z,11.46
2022-09-12T04:03:51.819Z,11.46
2022-09-12T04:04:51.801Z,11.44
2022-09-12T04:05:51.798Z,11.44
2022-09-12T04:06:51.788Z,11.44
2022-09-12T04:07:51.765Z,11.46
2022-09-12T04:08:51.749Z,11.44
2022-09-12T04:09:51.735Z,11.41
2022-09-12T04:10:52.425Z,11.43
2022-09-12T04:11:51.720Z,11.43
2022-09-12T04:12:51.689Z,11.44
2022-09-12T04:13:51.678Z,11.43
2022-09-12T04:14:51.673Z,11.39
2022-09-12T04:15:51.690Z,11.38
2022-09-12T04:16:51.695Z,11.35
2022-09-12T04:17:51.620Z,11.36
2022-09-12T04:18:51.600Z,11.34
2022-09-12T04:19:51.620Z,11.34
2022-09-12T04:20:52.258Z,11.32
2022-09-12T04:21:51.575Z,11.31
2022-09-12T04:22:51.585Z,11.28
2022-09-12T04:23:51.555Z,11.27
2022-09-12T04:24:51.544Z,11.24
2022-09-12T04:25:51.515Z,11.24
2022-09-12T04:26:51.521Z,11.24
2022-09-12T04:27:51.491Z,11.21
2022-09-12T04:28:51.470Z,11.21
2022-09-12T04:29:51.486Z,11.20
2022-09-12T04:30:51.585Z,11.20
2022-09-12T04:31:51.437Z,11.21
2022-09-12T04:32:51.401Z,11.21
2022-09-12T04:33:51.399Z,11.24
2022-09-12T04:34:51.395Z,11.21
2022-09-12T04:35:51.380Z,11.20
2022-09-12T04:36:51.414Z,11.20
2022-09-12T04:37:51.352Z,11.24
2022-09-12T04:38:51.328Z,11.24
2022-09-12T04:39:51.411Z,11.21
2022-09-12T04:40:51.316Z,11.24
2022-09-12T04:41:51.316Z,11.24
2022-09-12T04:42:51.573Z,11.27
2022-09-12T04:43:51.278Z,11.29
2022-09-12T04:44:51.263Z,11.27
2022-09-12T04:45:51.292Z,11.24
2022-09-12T04:46:51.256Z,11.28
2022-09-12T04:47:51.229Z,11.27
2022-09-12T04:48:55.938Z,11.25
2022-09-12T04:49:51.229Z,11.27
2022-09-12T04:50:51.198Z,11.29
2022-09-12T04:51:51.171Z,11.28
2022-09-12T04:52:51.144Z,11.28
2022-09-12T04:53:51.126Z,11.25
2022-09-12T04:54:51.142Z,11.27
2022-09-12T04:55:51.112Z,11.28
2022-09-12T04:56:51.090Z,11.28
2022-09-12T04:57:51.076Z,11.28
2022-09-12T04:58:51.087Z,11.25
2022-09-12T04:59:51.077Z,11.25
2022-09-12T05:00:51.096Z,11.24
2022-09-12T05:01:51.063Z,11.27
2022-09-12T05:02:50.997Z,11.24
2022-09-12T05:03:51.244Z,11.28
2022-09-12T05:04:50.963Z,11.27
2022-09-12T05:05:54.513Z,11.28
2022-09-12T05:06:50.970Z,11.29
2022-09-12T05:07:50.947Z,11.31
2022-09-12T05:08:50.936Z,11.31
2022-09-12T05:09:50.927Z,11.32
2022-09-12T05:10:50.898Z,11.29
2022-09-12T05:12:06.358Z,11.32
2022-09-12T05:12:50.880Z,11.32
2022-09-12T05:13:50.869Z,11.34
2022-09-12T05:14:50.851Z,11.34
2022-09-12T05:15:50.865Z,11.38
2022-09-12T05:16:57.079Z,11.41
2022-09-12T05:17:50.816Z,11.43
2022-09-12T05:18:50.804Z,11.44
2022-09-12T05:19:50.790Z,11.44
2022-09-12T05:20:50.781Z,11.46
2022-09-12T05:21:52.395Z,11.47
2022-09-12T05:22:49.753Z,11.50
2022-09-12T05:23:50.741Z,11.49
2022-09-12T05:24:50.911Z,11.52
2022-09-12T05:25:50.706Z,11.52
2022-09-12T05:26:50.749Z,11.53
2022-09-12T05:27:50.727Z,11.56
2022-09-12T05:28:50.673Z,11.56
2022-09-12T05:29:50.681Z,11.59
2022-09-12T05:30:50.779Z,11.64
2022-09-12T05:31:50.653Z,11.64
2022-09-12T05:32:50.633Z,11.68
2022-09-12T05:33:50.639Z,11.72
2022-09-12T05:34:50.597Z,11.75
2022-09-12T05:35:50.568Z,11.77
2022-09-12T05:36:50.582Z,11.75
2022-09-12T05:37:50.541Z,11.78
2022-09-12T05:38:50.551Z,11.82
2022-09-12T05:39:50.571Z,11.85
2022-09-12T05:40:50.507Z,11.86
2022-09-12T05:41:50.516Z,11.86
2022-09-12T05:42:50.481Z,11.85
2022-09-12T05:43:50.466Z,11.87
2022-09-12T05:44:50.459Z,11.89
2022-09-12T05:45:50.503Z,11.90
2022-09-12T05:46:50.437Z,11.94
2022-09-12T05:47:50.417Z,11.96
2022-09-12T05:48:55.141Z,11.96
2022-09-12T05:49:50.411Z,12.02
2022-09-12T05:50:50.377Z,12.04
2022-09-12T05:51:50.397Z,12.05
2022-09-12T05:52:50.354Z,12.09
2022-09-12T05:53:50.358Z,12.15
2022-09-12T05:54:50.343Z,12.21
2022-09-12T05:55:50.340Z,12.26
2022-09-12T05:56:50.289Z,12.29
2022-09-12T05:57:50.291Z,12.31
2022-09-12T05:58:50.295Z,12.33
2022-09-12T05:59:50.258Z,12.39
2022-09-12T06:00:50.255Z,12.45
2022-09-12T06:01:50.235Z,12.48
2022-09-12T06:02:50.311Z,12.49
2022-09-12T06:04:13.268Z,12.54
2022-09-12T06:06:02.160Z,12.66
2022-09-12T06:07:02.912Z,12.70
2022-09-12T06:08:02.886Z,12.74
2022-09-12T06:09:02.861Z,12.81
2022-09-12T06:10:02.869Z,12.81
2022-09-12T06:11:02.870Z,12.88
2022-09-12T06:12:02.834Z,12.95
2022-09-12T06:13:02.805Z,12.97
2022-09-12T06:14:02.798Z,13.00
2022-09-12T06:15:02.794Z,13.04
2022-09-12T06:16:02.793Z,13.07
2022-09-12T06:17:02.839Z,13.09
2022-09-12T06:18:02.775Z,13.12
2022-09-12T06:19:02.743Z,13.25
2022-09-12T06:20:02.712Z,13.38
2022-09-12T06:21:02.700Z,13.51
2022-09-12T06:22:02.701Z,13.56
2022-09-12T06:23:02.763Z,13.63
2022-09-12T06:24:02.705Z,13.69
2022-09-12T06:25:02.649Z,13.73
2022-09-12T06:26:02.636Z,13.79
2022-09-12T06:27:02.646Z,13.81
2022-09-12T06:28:02.614Z,13.87
2022-09-12T06:29:02.598Z,13.94
2022-09-12T06:30:02.580Z,14.01
2022-09-12T06:31:02.708Z,14.04
2022-09-12T06:32:02.583Z,14.07
2022-09-12T06:33:02.572Z,14.12
2022-09-12T06:34:02.527Z,14.17
2022-09-12T06:35:02.549Z,14.19
2022-09-12T06:36:02.499Z,14.20
2022-09-12T06:37:02.496Z,14.27
2022-09-12T06:38:02.762Z,14.28
2022-09-12T06:39:02.725Z,14.31
2022-09-12T06:40:02.492Z,14.34
2022-09-12T06:41:02.420Z,14.39
2022-09-12T06:42:02.478Z,14.47
2022-09-12T06:43:02.431Z,14.52
2022-09-12T06:44:02.403Z,14.53
2022-09-12T06:45:03.383Z,14.56
2022-09-12T06:46:02.402Z,14.60
2022-09-12T06:47:02.375Z,14.65
2022-09-12T06:48:26.388Z,14.71
2022-09-12T06:49:02.318Z,14.74
2022-09-12T06:54:06.952Z,14.93
2022-09-12T06:54:53.948Z,14.91
2022-09-12T06:56:14.905Z,14.99
2022-09-12T06:56:53.916Z,15.03
2022-09-12T06:57:53.895Z,15.11
2022-09-12T07:03:38.558Z,15.52
2022-09-12T07:13:42.703Z,16.00
2022-09-12T07:14:15.373Z,16.03
2022-09-12T07:15:17.539Z,16.07
2022-09-12T07:16:19.460Z,16.11
2022-09-12T07:17:15.308Z,16.11
2022-09-12T07:18:15.428Z,16.16
2022-09-12T07:19:15.352Z,16.22
2022-09-12T07:20:15.263Z,16.26
2022-09-12T07:21:15.382Z,16.27
2022-09-12T07:22:15.250Z,16.31
2022-09-12T07:23:15.259Z,16.34
2022-09-12T07:24:15.201Z,16.31
2022-09-12T07:25:15.189Z,16.26
2022-09-12T07:26:15.206Z,16.30
2022-09-12T07:27:15.226Z,16.31
2022-09-12T07:28:15.173Z,16.34
2022-09-12T07:30:15.144Z,16.40
2022-09-12T07:31:15.199Z,16.45
2022-09-12T07:32:15.111Z,16.52
2022-09-12T07:33:15.090Z,16.58
2022-09-12T07:34:15.067Z,16.59
2022-09-12T07:35:15.099Z,16.63
2022-09-12T07:36:15.111Z,16.67
2022-09-12T07:37:15.061Z,16.60
2022-09-12T07:38:15.039Z,16.62
2022-09-12T07:39:36.059Z,16.63
2022-09-12T07:40:36.074Z,16.67
2022-09-12T07:41:14.973Z,16.71
2022-09-12T07:42:14.983Z,16.73
2022-09-12T07:43:14.958Z,16.77
2022-09-12T07:44:14.916Z,16.80
2022-09-12T07:45:14.902Z,16.88
2022-09-12T07:46:14.957Z,16.90
2022-09-12T07:47:14.899Z,16.92
2022-09-12T07:48:14.867Z,16.96
2022-09-12T07:49:14.871Z,17.03
2022-09-12T07:50:14.835Z,17.04
2022-09-12T07:51:14.821Z,17.08
2022-09-12T07:52:14.811Z,17.11
2022-09-12T07:53:14.798Z,17.13
2022-09-12T07:54:14.791Z,17.18
2022-09-12T07:55:14.766Z,17.18
2022-09-12T07:56:14.769Z,17.22
2022-09-12T07:57:14.739Z,17.22
2022-09-12T07:58:14.719Z,17.26
2022-09-12T07:59:25.345Z,17.29
2022-09-12T08:00:14.703Z,17.28
2022-09-12T08:01:14.743Z,17.30
2022-09-12T08:02:17.053Z,17.33
2022-09-12T08:03:14.660Z,17.41
2022-09-12T08:04:14.638Z,17.44
2022-09-12T08:05:14.628Z,17.51
2022-09-12T08:06:14.614Z,17.53
2022-09-12T08:07:14.606Z,17.46
2022-09-12T08:08:14.594Z,17.48
2022-09-12T08:09:14.595Z,17.54
2022-09-12T08:10:14.609Z,17.55
2022-09-12T08:11:14.552Z,17.66
2022-09-12T08:12:14.537Z,17.57
2022-09-12T08:13:14.540Z,17.57
2022-09-12T08:14:14.504Z,17.64
2022-09-12T08:15:14.494Z,17.62
2022-09-12T08:16:14.491Z,17.66
2022-09-12T08:17:14.516Z,17.69
2022-09-12T08:18:14.471Z,17.69
2022-09-12T08:19:14.463Z,17.73
2022-09-12T08:20:14.477Z,17.85
2022-09-12T08:21:14.427Z,17.92
2022-09-12T08:22:14.414Z,17.97
2022-09-12T08:23:15.526Z,18.07
2022-09-12T08:24:14.434Z,18.09
2022-09-12T08:25:14.345Z,17.99
2022-09-12T08:26:14.317Z,18.02
2022-09-12T08:27:14.311Z,18.10
2022-09-12T08:28:14.305Z,18.21
2022-09-12T08:29:14.317Z,18.27
2022-09-12T08:30:14.508Z,18.18
2022-09-12T08:31:14.298Z,18.25
2022-09-12T08:32:14.244Z,18.29
2022-09-12T08:33:14.244Z,18.33
2022-09-12T08:34:14.217Z,18.39
2022-09-12T08:35:14.211Z,18.46
2022-09-12T08:36:14.179Z,18.57
2022-09-12T08:37:14.388Z,18.59
2022-09-12T08:38:14.159Z,18.65
2022-09-12T08:39:14.135Z,18.72
2022-09-12T08:40:14.239Z,18.74
2022-09-12T08:41:14.154Z,18.76
2022-09-12T08:42:14.134Z,18.79
2022-09-12T08:43:14.094Z,18.83
2022-09-12T08:44:14.099Z,18.86
2022-09-12T08:45:14.070Z,18.86
2022-09-12T08:46:14.145Z,-39.78
2022-09-12T08:47:14.019Z,-39.78
2022-09-12T08:48:14.018Z,-39.78
2022-09-12T08:49:14.023Z,-39.78
2022-09-12T08:50:14.003Z,-39.78
2022-09-12T08:51:14.048Z,-39.78
2022-09-12T08:52:14.030Z,-39.78
2022-09-12T08:53:13.954Z,-39.78
2022-09-12T08:54:13.937Z,-39.78
2022-09-12T08:55:13.922Z,-39.78
2022-09-12T08:56:13.910Z,-39.78
2022-09-12T08:57:14.225Z,-39.78
2022-09-12T08:58:13.924Z,-39.78
2022-09-12T08:59:13.873Z,-39.78
2022-09-12T09:00:13.850Z,-39.78
2022-09-12T09:01:13.875Z,-39.78
2022-09-12T09:02:13.924Z,-39.78
2022-09-12T09:03:14.091Z,-39.78
2022-09-12T09:04:13.829Z,-39.78
2022-09-12T09:05:13.802Z,-39.78
2022-09-12T09:06:13.750Z,-39.78
2022-09-12T09:07:13.759Z,-39.78
2022-09-12T09:08:13.750Z,-39.78
2022-09-12T09:09:13.738Z,-39.78
2022-09-12T09:10:13.727Z,-39.78
2022-09-12T09:11:13.684Z,-39.78
2022-09-12T09:12:13.698Z,-39.78
2022-09-12T09:13:13.679Z,-39.78
2022-09-12T09:14:13.692Z,-39.78
2022-09-12T09:15:13.638Z,-39.78
2022-09-12T09:16:14.228Z,-39.78
2022-09-12T09:17:14.002Z,-39.78
2022-09-12T09:18:13.599Z,-39.78
2022-09-12T09:19:13.605Z,-39.78
2022-09-12T09:20:15.153Z,-39.78
2022-09-12T09:21:34.599Z,-39.78
2022-09-12T09:22:13.543Z,-39.78
2022-09-12T09:23:13.541Z,-39.78
2022-09-12T09:24:13.506Z,-39.78
2022-09-12T09:25:13.495Z,-39.78
2022-09-12T09:26:13.469Z,-39.78
2022-09-12T09:27:36.900Z,-39.78
2022-09-12T09:28:13.489Z,-39.78
2022-09-12T09:29:13.447Z,-39.78
2022-09-12T09:30:13.472Z,-39.78
2022-09-12T09:31:34.591Z,-39.78
2022-09-12T09:32:13.398Z,-39.78
2022-09-12T09:33:14.547Z,-39.78
2022-09-12T09:34:13.384Z,-39.78
2022-09-12T09:35:13.393Z,-39.78
2022-09-12T09:36:13.326Z,-39.78
2022-09-12T09:37:13.315Z,-39.78
2022-09-12T09:38:13.298Z,-39.78
2022-09-12T09:39:13.280Z,-39.78
2022-09-12T09:40:13.346Z,-39.78
2022-09-12T09:41:13.255Z,-39.78
2022-09-12T09:42:13.248Z,-39.78
2022-09-12T09:43:13.295Z,-39.78
2022-09-12T09:44:13.214Z,-39.78
2022-09-12T09:45:13.249Z,-39.78
2022-09-12T09:46:13.253Z,-39.78
2022-09-12T09:47:13.165Z,-39.78
2022-09-12T09:48:13.156Z,-39.78
2022-09-12T09:49:13.150Z,-39.78
2022-09-12T09:50:13.139Z,-39.78
2022-09-12T09:51:15.306Z,-39.78
2022-09-12T09:52:13.113Z,-39.78
2022-09-12T09:53:13.106Z,-39.78
2022-09-12T09:54:13.078Z,-39.78
2022-09-12T09:55:13.084Z,-39.78
2022-09-12T09:56:13.088Z,-39.78
2022-09-12T09:57:13.035Z,-39.78
2022-09-12T09:58:13.026Z,-39.78
2022-09-12T09:59:13.005Z,-39.78
2022-09-12T10:00:13.052Z,-39.78
2022-09-12T10:01:13.012Z,-39.78
2022-09-12T10:02:13.025Z,-39.78
2022-09-12T10:03:14.096Z,-39.78
2022-09-12T10:04:12.945Z,-39.78
2022-09-12T10:05:12.944Z,-39.78
2022-09-12T10:06:12.910Z,-39.78
2022-09-12T10:07:12.901Z,-39.78
2022-09-12T10:08:12.882Z,-39.78
2022-09-12T10:09:12.886Z,-39.78
2022-09-12T10:10:12.953Z,-39.78
2022-09-12T10:11:12.927Z,-39.78
2022-09-12T10:12:12.840Z,-39.78
2022-09-12T10:13:12.822Z,-39.78
2022-09-12T10:14:12.825Z,-39.78
2022-09-12T10:15:14.681Z,-39.78
2022-09-12T10:16:13.603Z,-39.78
2022-09-12T10:17:12.802Z,-39.78
2022-09-12T10:18:12.752Z,-39.78
2022-09-12T10:19:11.720Z,-39.78
2022-09-12T10:20:27.982Z,-39.78
2022-09-12T10:21:12.706Z,-39.78
2022-09-12T10:22:12.693Z,-39.78
2022-09-12T10:23:12.669Z,-39.78
2022-09-12T10:24:12.670Z,-39.78
2022-09-12T10:25:12.661Z,-39.78
2022-09-12T10:26:12.650Z,-39.78
2022-09-12T10:27:12.627Z,-39.78
2022-09-12T10:28:12.615Z,-39.78
2022-09-12T10:29:12.589Z,-39.78
2022-09-12T10:30:12.612Z,-39.78
2022-09-12T10:31:12.619Z,-39.78
2022-09-12T10:32:12.595Z,-39.78
2022-09-12T10:33:12.558Z,-39.78
2022-09-12T10:34:12.579Z,-39.78
2022-09-12T10:35:12.548Z,-39.78
2022-09-12T10:36:12.521Z,-39.78
2022-09-12T10:37:12.479Z,-39.78
2022-09-12T10:38:12.478Z,-39.78
2022-09-12T10:39:12.499Z,-39.78
2022-09-12T10:40:12.547Z,-39.78
2022-09-12T10:41:12.426Z,-39.78
2022-09-12T10:42:12.505Z,-39.78
2022-09-12T10:43:12.421Z,-39.78
2022-09-12T10:44:12.398Z,-39.78
2022-09-12T10:45:12.390Z,-39.78
2022-09-12T10:46:12.429Z,-39.78
2022-09-12T10:47:12.349Z,-39.78
2022-09-12T10:48:12.380Z,-39.78
2022-09-12T10:49:12.355Z,-39.78
2022-09-12T10:50:22.166Z,-39.78
2022-09-12T10:51:12.309Z,-39.78
2022-09-12T10:52:12.280Z,-39.78
2022-09-12T10:53:13.187Z,-39.78
2022-09-12T10:54:12.252Z,-39.78
2022-09-12T10:55:12.291Z,-39.78
2022-09-12T10:56:12.228Z,-39.78
2022-09-12T10:57:12.216Z,-39.78
2022-09-12T10:58:12.225Z,-39.78
2022-09-12T10:59:13.355Z,-39.78
2022-09-12T11:00:12.212Z,-39.78
2022-09-12T11:01:12.223Z,-39.78
2022-09-12T11:02:12.184Z,-39.78
2022-09-12T11:03:12.175Z,-39.78
2022-09-12T11:04:12.126Z,-39.78
2022-09-12T11:05:12.154Z,-39.78
2022-09-12T11:06:12.108Z,-39.78
2022-09-12T11:07:12.095Z,-39.78
2022-09-12T11:08:12.058Z,-39.78
2022-09-12T11:09:12.052Z,-39.78
2022-09-12T11:10:12.121Z,-39.78
2022-09-12T11:11:12.107Z,-39.78
2022-09-12T11:12:12.025Z,-39.78
2022-09-12T11:13:12.007Z,-39.78
2022-09-12T11:14:11.977Z,-39.78
2022-09-12T11:15:11.990Z,-39.78
2022-09-12T11:16:12.104Z,-39.78
2022-09-12T11:17:13.636Z,-39.78
2022-09-12T11:18:11.930Z,-39.78
2022-09-12T11:19:11.909Z,-39.78
2022-09-12T11:20:11.986Z,-39.78
2022-09-12T11:21:11.891Z,-39.78
2022-09-12T11:22:11.866Z,-39.78
2022-09-12T11:23:11.867Z,-39.78
2022-09-12T11:24:11.843Z,-39.78
2022-09-12T11:25:11.834Z,-39.78
2022-09-12T11:26:11.840Z,-39.78
2022-09-12T11:27:11.807Z,-39.78
2022-09-12T11:28:11.789Z,-39.78
2022-09-12T11:29:11.835Z,-39.78
2022-09-12T11:30:11.845Z,-39.78
2022-09-12T11:31:11.849Z,-39.78
2022-09-12T11:32:11.744Z,-39.78
2022-09-12T11:33:11.725Z,-39.78
2022-09-12T11:34:11.707Z,-39.78
2022-09-12T11:35:16.637Z,-39.78
2022-09-12T11:36:19.911Z,-39.78
2022-09-12T11:37:14.153Z,-39.78
2022-09-12T11:38:11.660Z,-39.78
2022-09-12T11:39:11.644Z,-39.78
2022-09-12T11:40:11.732Z,-39.78
2022-09-12T11:41:11.626Z,-39.78
2022-09-12T11:42:11.597Z,-39.78
2022-09-12T11:43:11.595Z,-39.78
2022-09-12T11:44:11.585Z,-39.78
2022-09-12T11:45:11.583Z,-39.78
2022-09-12T11:46:11.613Z,-39.78
2022-09-12T11:47:11.522Z,-39.78
2022-09-12T11:48:11.516Z,-39.78
2022-09-12T11:49:11.507Z,-39.78
2022-09-12T11:50:11.600Z,-39.78
2022-09-12T11:51:11.522Z,-39.78
2022-09-12T11:52:11.475Z,-39.78
2022-09-12T11:53:11.531Z,-39.78
2022-09-12T11:54:11.457Z,-39.78
2022-09-12T11:55:11.441Z,-39.78
2022-09-12T11:56:11.406Z,-39.78
2022-09-12T11:57:11.477Z,-39.78
2022-09-12T11:58:11.383Z,-39.78
2022-09-12T11:59:11.377Z,-39.78
2022-09-12T12:00:11.354Z,-39.78
2022-09-12T12:01:11.373Z,-39.78
2022-09-12T12:02:11.393Z,-39.78
2022-09-12T12:03:11.365Z,-39.78
2022-09-12T12:04:11.321Z,-39.78
2022-09-12T12:05:11.297Z,-39.78
2022-09-12T12:06:11.321Z,-39.78
2022-09-12T12:07:11.299Z,-39.78
2022-09-12T12:08:11.253Z,-39.78
2022-09-12T12:09:11.273Z,-39.78
2022-09-12T12:10:11.246Z,-39.78
2022-09-12T12:11:11.182Z,-39.78
2022-09-12T12:12:11.196Z,-39.78
2022-09-12T12:13:14.245Z,-39.78
2022-09-12T12:14:11.191Z,-39.78
2022-09-12T12:15:11.140Z,-39.78
2022-09-12T12:16:11.182Z,-39.78
2022-09-12T12:17:11.146Z,-39.78
2022-09-12T12:18:11.129Z,-39.78
2022-09-12T12:19:11.093Z,-39.78
2022-09-12T12:20:11.224Z,-39.78
2022-09-12T12:21:11.057Z,-39.78
2022-09-12T12:22:11.127Z,-39.78
2022-09-12T12:23:11.035Z,-39.78
2022-09-12T12:24:11.028Z,-39.78
2022-09-12T12:25:10.990Z,-39.78
2022-09-12T12:26:11.019Z,-39.78
2022-09-12T12:27:10.996Z,-39.78
2022-09-12T12:28:10.982Z,-39.78
2022-09-12T12:29:10.983Z,-39.78
2022-09-12T12:30:10.948Z,-39.78
2022-09-12T12:31:11.005Z,-39.78
2022-09-12T12:32:10.944Z,-39.78
2022-09-12T12:33:10.892Z,-39.78
2022-09-12T12:34:10.902Z,-39.78
2022-09-12T12:35:10.880Z,-39.78
2022-09-12T12:36:10.859Z,-39.78
2022-09-12T12:37:10.854Z,-39.78
2022-09-12T12:38:10.840Z,-39.78
2022-09-12T12:39:10.829Z,-39.78
2022-09-12T12:40:10.887Z,-39.78
2022-09-12T12:41:10.825Z,-39.78
2022-09-12T12:42:10.824Z,-39.78
2022-09-12T12:43:10.740Z,-39.78
2022-09-12T12:44:10.810Z,-39.78
2022-09-12T12:45:10.728Z,-39.78
2022-09-12T12:46:10.831Z,-39.78
2022-09-12T12:47:10.735Z,-39.78
2022-09-12T12:48:10.704Z,-39.78
2022-09-12T12:49:10.666Z,-39.78
2022-09-12T12:50:10.742Z,-39.78
2022-09-12T12:51:10.649Z,-39.78
2022-09-12T12:52:10.637Z,-39.78
2022-09-12T12:53:10.610Z,-39.78
2022-09-12T12:54:13.046Z,-39.78
2022-09-12T12:55:10.796Z,-39.78
2022-09-12T12:56:10.733Z,-39.78
2022-09-12T12:57:10.647Z,-39.78
2022-09-12T12:58:10.555Z,-39.78
2022-09-12T12:59:10.555Z,-39.78
2022-09-12T13:00:10.542Z,-39.78
2022-09-12T13:01:10.519Z,-39.78
2022-09-12T13:02:10.649Z,-39.78
2022-09-12T13:03:10.483Z,-39.78
2022-09-12T13:04:10.525Z,-39.78
2022-09-12T13:05:10.459Z,-39.78
2022-09-12T13:06:10.455Z,-39.78
2022-09-12T13:07:10.451Z,-39.78
2022-09-12T13:08:10.427Z,-39.78
2022-09-12T13:09:10.456Z,-39.78
2022-09-12T13:10:10.394Z,-39.78
2022-09-12T13:11:10.379Z,-39.78
2022-09-12T13:12:10.435Z,-39.78
2022-09-12T13:13:10.433Z,-39.78
2022-09-12T13:14:10.353Z,-39.78
2022-09-12T13:15:10.355Z,-39.78
2022-09-12T13:16:10.430Z,-39.78
2022-09-12T13:17:10.388Z,-39.78